sensor_id;sensor_type;location;lat;lon;timestamp;P1;durP1;ratioP1;P2;durP2;ratioP2
43114;SDS011;28727;50.068;14.452;2022-08-19T00:01:58;9.52;;;5.95;;
43114;SDS011;28727;50.068;14.452;2022-08-19T00:04:31;8.60;;;5.55;;
43114;SDS011;28727;50.068;14.452;2022-08-19T00:07:07;9.70;;;5.53;;
43114;SDS011;28727;50.068;14.452;2022-08-19T00:12:15;12.80;;;5.72;;
43114;SDS011;28727;50.068;14.452;2022-08-19T00:14:47;9.05;;;6.07;;
43114;SDS011;28727;50.068;14.452;2022-08-19T00:17:18;10.70;;;6.20;;
43114;SDS011;28727;50.068;14.452;2022-08-19T00:19:50;8.95;;;5.90;;
43114;SDS011;28727;50.068;14.452;2022-08-19T00:22:21;12.23;;;6.28;;
43114;SDS011;28727;50.068;14.452;2022-08-19T00:24:55;11.88;;;5.70;;
43114;SDS011;28727;50.068;14.452;2022-08-19T00:27:27;9.43;;;5.75;;
43114;SDS011;28727;50.068;14.452;2022-08-19T00:29:59;7.97;;;5.68;;
43114;SDS011;28727;50.068;14.452;2022-08-19T00:32:31;9.50;;;6.40;;
43114;SDS011;28727;50.068;14.452;2022-08-19T00:35:04;9.18;;;5.88;;
43114;SDS011;28727;50.068;14.452;2022-08-19T00:37:36;8.10;;;5.93;;
43114;SDS011;28727;50.068;14.452;2022-08-19T00:40:10;10.30;;;6.18;;
43114;SDS011;28727;50.068;14.452;2022-08-19T00:42:43;7.47;;;5.93;;
43114;SDS011;28727;50.068;14.452;2022-08-19T00:45:19;9.50;;;5.53;;
43114;SDS011;28727;50.068;14.452;2022-08-19T00:47:57;9.00;;;6.35;;
43114;SDS011;28727;50.068;14.452;2022-08-19T00:50:31;9.20;;;6.60;;
43114;SDS011;28727;50.068;14.452;2022-08-19T00:53:04;7.85;;;5.90;;
43114;SDS011;28727;50.068;14.452;2022-08-19T00:55:37;8.85;;;6.70;;
43114;SDS011;28727;50.068;14.452;2022-08-19T00:58:12;8.40;;;6.30;;
43114;SDS011;28727;50.068;14.452;2022-08-19T01:00:46;6.68;;;5.80;;
43114;SDS011;28727;50.068;14.452;2022-08-19T01:03:19;10.43;;;6.22;;
43114;SDS011;28727;50.068;14.452;2022-08-19T01:05:52;8.50;;;6.38;;
43114;SDS011;28727;50.068;14.452;2022-08-19T01:08:25;8.48;;;5.93;;
43114;SDS011;28727;50.068;14.452;2022-08-19T01:10:58;7.85;;;6.57;;
43114;SDS011;28727;50.068;14.452;2022-08-19T01:13:32;7.88;;;6.45;;
43114;SDS011;28727;50.068;14.452;2022-08-19T01:16:21;9.68;;;6.80;;
43114;SDS011;28727;50.068;14.452;2022-08-19T01:19:00;11.48;;;7.20;;
43114;SDS011;28727;50.068;14.452;2022-08-19T01:21:44;9.32;;;6.90;;
43114;SDS011;28727;50.068;14.452;2022-08-19T01:24:21;8.15;;;7.32;;
43114;SDS011;28727;50.068;14.452;2022-08-19T01:26:53;8.32;;;7.13;;
43114;SDS011;28727;50.068;14.452;2022-08-19T01:29:27;8.57;;;7.40;;
43114;SDS011;28727;50.068;14.452;2022-08-19T01:32:01;10.68;;;7.72;;
43114;SDS011;28727;50.068;14.452;2022-08-19T01:34:33;10.32;;;7.78;;
43114;SDS011;28727;50.068;14.452;2022-08-19T01:37:06;9.85;;;8.05;;
43114;SDS011;28727;50.068;14.452;2022-08-19T01:39:42;9.85;;;8.32;;
43114;SDS011;28727;50.068;14.452;2022-08-19T01:42:14;9.77;;;7.60;;
43114;SDS011;28727;50.068;14.452;2022-08-19T01:44:46;12.32;;;8.98;;
43114;SDS011;28727;50.068;14.452;2022-08-19T01:47:17;10.68;;;8.43;;
43114;SDS011;28727;50.068;14.452;2022-08-19T01:49:49;9.55;;;8.55;;
43114;SDS011;28727;50.068;14.452;2022-08-19T01:52:21;9.65;;;8.65;;
43114;SDS011;28727;50.068;14.452;2022-08-19T01:54:52;14.63;;;9.20;;
43114;SDS011;28727;50.068;14.452;2022-08-19T01:57:24;10.30;;;8.45;;
43114;SDS011;28727;50.068;14.452;2022-08-19T01:59:57;11.80;;;9.32;;
43114;SDS011;28727;50.068;14.452;2022-08-19T02:02:28;14.05;;;9.38;;
43114;SDS011;28727;50.068;14.452;2022-08-19T02:05:00;10.90;;;9.82;;
43114;SDS011;28727;50.068;14.452;2022-08-19T02:07:32;12.18;;;9.20;;
43114;SDS011;28727;50.068;14.452;2022-08-19T02:10:05;10.48;;;9.38;;
43114;SDS011;28727;50.068;14.452;2022-08-19T02:12:44;11.32;;;8.90;;
43114;SDS011;28727;50.068;14.452;2022-08-19T02:17:50;9.63;;;8.63;;
43114;SDS011;28727;50.068;14.452;2022-08-19T02:20:23;11.60;;;9.00;;
43114;SDS011;28727;50.068;14.452;2022-08-19T02:22:58;11.98;;;8.52;;
43114;SDS011;28727;50.068;14.452;2022-08-19T02:25:32;11.43;;;8.73;;
43114;SDS011;28727;50.068;14.452;2022-08-19T02:28:04;11.65;;;8.57;;
43114;SDS011;28727;50.068;14.452;2022-08-19T02:30:37;12.60;;;9.00;;
43114;SDS011;28727;50.068;14.452;2022-08-19T02:33:09;10.75;;;9.23;;
43114;SDS011;28727;50.068;14.452;2022-08-19T02:35:44;11.23;;;8.80;;
43114;SDS011;28727;50.068;14.452;2022-08-19T02:38:17;11.02;;;9.82;;
43114;SDS011;28727;50.068;14.452;2022-08-19T02:41:01;15.00;;;9.63;;
43114;SDS011;28727;50.068;14.452;2022-08-19T02:43:35;14.50;;;10.23;;
43114;SDS011;28727;50.068;14.452;2022-08-19T02:46:16;14.10;;;10.25;;
43114;SDS011;28727;50.068;14.452;2022-08-19T02:48:53;10.82;;;9.20;;
43114;SDS011;28727;50.068;14.452;2022-08-19T02:51:28;13.35;;;10.30;;
43114;SDS011;28727;50.068;14.452;2022-08-19T02:54:08;12.25;;;10.75;;
43114;SDS011;28727;50.068;14.452;2022-08-19T02:56:42;11.43;;;10.30;;
43114;SDS011;28727;50.068;14.452;2022-08-19T02:59:15;13.68;;;10.30;;
43114;SDS011;28727;50.068;14.452;2022-08-19T03:01:47;14.00;;;11.00;;
43114;SDS011;28727;50.068;14.452;2022-08-19T03:04:19;13.07;;;10.68;;
43114;SDS011;28727;50.068;14.452;2022-08-19T03:06:51;13.02;;;11.52;;
43114;SDS011;28727;50.068;14.452;2022-08-19T03:09:22;13.02;;;11.60;;
43114;SDS011;28727;50.068;14.452;2022-08-19T03:11:54;14.50;;;12.95;;
43114;SDS011;28727;50.068;14.452;2022-08-19T03:14:26;13.95;;;12.55;;
43114;SDS011;28727;50.068;14.452;2022-08-19T03:16:59;16.90;;;13.30;;
43114;SDS011;28727;50.068;14.452;2022-08-19T03:19:31;14.65;;;13.00;;
43114;SDS011;28727;50.068;14.452;2022-08-19T03:22:03;15.55;;;12.70;;
43114;SDS011;28727;50.068;14.452;2022-08-19T03:24:36;15.23;;;13.30;;
43114;SDS011;28727;50.068;14.452;2022-08-19T03:27:09;13.57;;;12.18;;
43114;SDS011;28727;50.068;14.452;2022-08-19T03:29:41;19.20;;;13.55;;
43114;SDS011;28727;50.068;14.452;2022-08-19T03:32:14;14.63;;;12.95;;
43114;SDS011;28727;50.068;14.452;2022-08-19T03:35:03;15.30;;;13.73;;
43114;SDS011;28727;50.068;14.452;2022-08-19T03:37:35;15.43;;;12.98;;
43114;SDS011;28727;50.068;14.452;2022-08-19T03:40:07;16.63;;;14.30;;
43114;SDS011;28727;50.068;14.452;2022-08-19T03:42:46;17.02;;;14.32;;
43114;SDS011;28727;50.068;14.452;2022-08-19T03:45:19;15.35;;;13.75;;
43114;SDS011;28727;50.068;14.452;2022-08-19T03:47:51;15.50;;;13.77;;
43114;SDS011;28727;50.068;14.452;2022-08-19T03:50:24;16.23;;;13.70;;
43114;SDS011;28727;50.068;14.452;2022-08-19T03:52:56;17.23;;;14.88;;
43114;SDS011;28727;50.068;14.452;2022-08-19T03:55:27;16.52;;;14.20;;
43114;SDS011;28727;50.068;14.452;2022-08-19T03:57:59;16.85;;;15.05;;
43114;SDS011;28727;50.068;14.452;2022-08-19T04:00:31;18.73;;;14.65;;
43114;SDS011;28727;50.068;14.452;2022-08-19T04:03:04;16.67;;;14.70;;
43114;SDS011;28727;50.068;14.452;2022-08-19T04:05:36;16.02;;;14.38;;
43114;SDS011;28727;50.068;14.452;2022-08-19T04:08:09;16.63;;;14.88;;
43114;SDS011;28727;50.068;14.452;2022-08-19T04:10:44;18.20;;;15.50;;
43114;SDS011;28727;50.068;14.452;2022-08-19T04:13:16;17.38;;;15.25;;
43114;SDS011;28727;50.068;14.452;2022-08-19T04:15:49;16.13;;;14.48;;
43114;SDS011;28727;50.068;14.452;2022-08-19T04:18:21;17.33;;;15.50;;
43114;SDS011;28727;50.068;14.452;2022-08-19T04:20:55;17.17;;;15.35;;
43114;SDS011;28727;50.068;14.452;2022-08-19T04:23:28;18.52;;;14.88;;
43114;SDS011;28727;50.068;14.452;2022-08-19T04:25:59;18.17;;;15.85;;
43114;SDS011;28727;50.068;14.452;2022-08-19T04:28:31;19.33;;;16.60;;
43114;SDS011;28727;50.068;14.452;2022-08-19T04:31:04;20.27;;;17.50;;
43114;SDS011;28727;50.068;14.452;2022-08-19T04:33:35;17.60;;;15.75;;
43114;SDS011;28727;50.068;14.452;2022-08-19T04:36:07;19.33;;;17.10;;
43114;SDS011;28727;50.068;14.452;2022-08-19T04:38:41;20.15;;;16.65;;
43114;SDS011;28727;50.068;14.452;2022-08-19T04:41:13;19.83;;;16.73;;
43114;SDS011;28727;50.068;14.452;2022-08-19T04:44:04;18.52;;;16.52;;
43114;SDS011;28727;50.068;14.452;2022-08-19T04:46:35;18.55;;;16.05;;
43114;SDS011;28727;50.068;14.452;2022-08-19T04:49:21;20.30;;;17.60;;
43114;SDS011;28727;50.068;14.452;2022-08-19T04:51:54;18.33;;;16.35;;
43114;SDS011;28727;50.068;14.452;2022-08-19T04:54:26;16.70;;;15.10;;
43114;SDS011;28727;50.068;14.452;2022-08-19T04:57:09;18.80;;;16.88;;
43114;SDS011;28727;50.068;14.452;2022-08-19T04:59:41;20.52;;;16.50;;
43114;SDS011;28727;50.068;14.452;2022-08-19T05:02:13;19.70;;;17.20;;
43114;SDS011;28727;50.068;14.452;2022-08-19T05:04:45;17.90;;;16.10;;
43114;SDS011;28727;50.068;14.452;2022-08-19T05:07:16;20.00;;;15.65;;
43114;SDS011;28727;50.068;14.452;2022-08-19T05:09:48;20.00;;;17.90;;
43114;SDS011;28727;50.068;14.452;2022-08-19T05:12:29;20.02;;;15.45;;
43114;SDS011;28727;50.068;14.452;2022-08-19T05:15:02;18.50;;;16.60;;
43114;SDS011;28727;50.068;14.452;2022-08-19T05:17:35;20.67;;;16.52;;
43114;SDS011;28727;50.068;14.452;2022-08-19T05:23:00;16.90;;;14.52;;
43114;SDS011;28727;50.068;14.452;2022-08-19T05:25:42;20.60;;;16.35;;
43114;SDS011;28727;50.068;14.452;2022-08-19T05:28:15;18.83;;;16.25;;
43114;SDS011;28727;50.068;14.452;2022-08-19T05:30:47;19.90;;;15.57;;
43114;SDS011;28727;50.068;14.452;2022-08-19T05:33:19;18.30;;;15.50;;
43114;SDS011;28727;50.068;14.452;2022-08-19T05:35:52;18.15;;;16.10;;
43114;SDS011;28727;50.068;14.452;2022-08-19T05:38:24;19.17;;;16.10;;
43114;SDS011;28727;50.068;14.452;2022-08-19T05:40:57;16.33;;;14.73;;
43114;SDS011;28727;50.068;14.452;2022-08-19T05:43:29;22.95;;;16.75;;
43114;SDS011;28727;50.068;14.452;2022-08-19T05:46:00;16.58;;;14.77;;
43114;SDS011;28727;50.068;14.452;2022-08-19T05:48:33;19.15;;;15.45;;
43114;SDS011;28727;50.068;14.452;2022-08-19T05:51:06;17.38;;;15.50;;
43114;SDS011;28727;50.068;14.452;2022-08-19T05:53:39;18.00;;;16.08;;
43114;SDS011;28727;50.068;14.452;2022-08-19T05:56:12;17.92;;;16.10;;
43114;SDS011;28727;50.068;14.452;2022-08-19T05:58:47;17.27;;;15.45;;
43114;SDS011;28727;50.068;14.452;2022-08-19T06:01:18;19.83;;;16.92;;
43114;SDS011;28727;50.068;14.452;2022-08-19T06:03:51;22.63;;;15.77;;
43114;SDS011;28727;50.068;14.452;2022-08-19T06:06:23;17.45;;;15.65;;
43114;SDS011;28727;50.068;14.452;2022-08-19T06:08:55;19.02;;;16.40;;
43114;SDS011;28727;50.068;14.452;2022-08-19T06:11:34;19.23;;;16.27;;
43114;SDS011;28727;50.068;14.452;2022-08-19T06:14:11;19.38;;;17.15;;
43114;SDS011;28727;50.068;14.452;2022-08-19T06:16:48;17.58;;;15.77;;
43114;SDS011;28727;50.068;14.452;2022-08-19T06:19:22;22.45;;;16.48;;
43114;SDS011;28727;50.068;14.452;2022-08-19T06:21:55;19.17;;;16.33;;
43114;SDS011;28727;50.068;14.452;2022-08-19T06:24:29;19.17;;;16.40;;
43114;SDS011;28727;50.068;14.452;2022-08-19T06:27:02;17.98;;;15.18;;
43114;SDS011;28727;50.068;14.452;2022-08-19T06:29:36;17.38;;;15.55;;
43114;SDS011;28727;50.068;14.452;2022-08-19T06:32:09;15.95;;;13.93;;
43114;SDS011;28727;50.068;14.452;2022-08-19T06:34:40;16.83;;;15.07;;
43114;SDS011;28727;50.068;14.452;2022-08-19T06:37:13;19.42;;;16.98;;
43114;SDS011;28727;50.068;14.452;2022-08-19T06:39:46;16.70;;;14.93;;
43114;SDS011;28727;50.068;14.452;2022-08-19T06:42:18;17.08;;;15.25;;
43114;SDS011;28727;50.068;14.452;2022-08-19T06:44:54;18.73;;;15.52;;
43114;SDS011;28727;50.068;14.452;2022-08-19T06:47:26;17.60;;;15.23;;
43114;SDS011;28727;50.068;14.452;2022-08-19T06:49:59;19.60;;;16.63;;
43114;SDS011;28727;50.068;14.452;2022-08-19T06:52:35;17.27;;;15.38;;
43114;SDS011;28727;50.068;14.452;2022-08-19T06:55:10;18.45;;;16.25;;
43114;SDS011;28727;50.068;14.452;2022-08-19T06:57:42;23.25;;;14.85;;
43114;SDS011;28727;50.068;14.452;2022-08-19T07:00:17;17.55;;;15.75;;
43114;SDS011;28727;50.068;14.452;2022-08-19T07:02:49;17.67;;;15.80;;
43114;SDS011;28727;50.068;14.452;2022-08-19T07:05:28;20.48;;;15.60;;
43114;SDS011;28727;50.068;14.452;2022-08-19T07:08:00;19.20;;;15.45;;
43114;SDS011;28727;50.068;14.452;2022-08-19T07:10:35;17.90;;;16.05;;
43114;SDS011;28727;50.068;14.452;2022-08-19T07:13:13;29.75;;;17.17;;
43114;SDS011;28727;50.068;14.452;2022-08-19T07:15:44;19.35;;;15.98;;
43114;SDS011;28727;50.068;14.452;2022-08-19T07:18:19;18.88;;;15.00;;
43114;SDS011;28727;50.068;14.452;2022-08-19T07:21:01;19.92;;;15.52;;
43114;SDS011;28727;50.068;14.452;2022-08-19T07:23:39;16.55;;;14.65;;
43114;SDS011;28727;50.068;14.452;2022-08-19T07:26:13;16.98;;;15.30;;
43114;SDS011;28727;50.068;14.452;2022-08-19T07:28:58;18.25;;;13.55;;
43114;SDS011;28727;50.068;14.452;2022-08-19T07:31:34;22.05;;;12.75;;
43114;SDS011;28727;50.068;14.452;2022-08-19T07:34:09;17.13;;;12.80;;
43114;SDS011;28727;50.068;14.452;2022-08-19T07:36:45;15.20;;;13.40;;
43114;SDS011;28727;50.068;14.452;2022-08-19T07:39:22;17.42;;;14.85;;
43114;SDS011;28727;50.068;14.452;2022-08-19T07:41:56;16.05;;;14.35;;
43114;SDS011;28727;50.068;14.452;2022-08-19T07:47:01;16.50;;;13.93;;
43114;SDS011;28727;50.068;14.452;2022-08-19T07:49:35;16.77;;;13.80;;
43114;SDS011;28727;50.068;14.452;2022-08-19T07:52:07;17.35;;;14.13;;
43114;SDS011;28727;50.068;14.452;2022-08-19T07:54:40;15.90;;;13.55;;
43114;SDS011;28727;50.068;14.452;2022-08-19T07:57:12;16.83;;;13.77;;
43114;SDS011;28727;50.068;14.452;2022-08-19T07:59:44;15.65;;;13.85;;
43114;SDS011;28727;50.068;14.452;2022-08-19T08:02:16;15.80;;;13.30;;
43114;SDS011;28727;50.068;14.452;2022-08-19T08:04:50;16.15;;;13.88;;
43114;SDS011;28727;50.068;14.452;2022-08-19T08:07:41;17.23;;;14.25;;
43114;SDS011;28727;50.068;14.452;2022-08-19T08:10:31;14.45;;;13.07;;
43114;SDS011;28727;50.068;14.452;2022-08-19T08:13:04;16.42;;;14.50;;
43114;SDS011;28727;50.068;14.452;2022-08-19T08:15:41;19.50;;;14.05;;
43114;SDS011;28727;50.068;14.452;2022-08-19T08:18:15;14.57;;;12.73;;
43114;SDS011;28727;50.068;14.452;2022-08-19T08:20:47;15.60;;;12.82;;
43114;SDS011;28727;50.068;14.452;2022-08-19T08:23:23;15.05;;;13.65;;
43114;SDS011;28727;50.068;14.452;2022-08-19T08:25:57;15.77;;;13.90;;
43114;SDS011;28727;50.068;14.452;2022-08-19T08:28:29;14.18;;;12.77;;
43114;SDS011;28727;50.068;14.452;2022-08-19T08:31:01;15.63;;;14.13;;
43114;SDS011;28727;50.068;14.452;2022-08-19T08:33:40;17.45;;;14.10;;
43114;SDS011;28727;50.068;14.452;2022-08-19T08:36:13;14.87;;;13.37;;
43114;SDS011;28727;50.068;14.452;2022-08-19T08:38:46;15.73;;;12.90;;
43114;SDS011;28727;50.068;14.452;2022-08-19T08:43:57;15.80;;;13.93;;
43114;SDS011;28727;50.068;14.452;2022-08-19T08:49:28;15.57;;;13.98;;
43114;SDS011;28727;50.068;14.452;2022-08-19T08:52:06;17.73;;;13.80;;
43114;SDS011;28727;50.068;14.452;2022-08-19T08:54:43;15.70;;;14.10;;
43114;SDS011;28727;50.068;14.452;2022-08-19T08:57:36;16.63;;;14.90;;
43114;SDS011;28727;50.068;14.452;2022-08-19T09:00:20;17.67;;;15.93;;
43114;SDS011;28727;50.068;14.452;2022-08-19T09:02:55;17.13;;;15.15;;
43114;SDS011;28727;50.068;14.452;2022-08-19T09:05:38;16.65;;;15.00;;
43114;SDS011;28727;50.068;14.452;2022-08-19T09:08:43;16.27;;;14.55;;
43114;SDS011;28727;50.068;14.452;2022-08-19T09:11:47;17.13;;;15.07;;
43114;SDS011;28727;50.068;14.452;2022-08-19T09:17:26;17.02;;;15.07;;
43114;SDS011;28727;50.068;14.452;2022-08-19T09:22:47;17.02;;;15.32;;
43114;SDS011;28727;50.068;14.452;2022-08-19T09:25:21;16.48;;;14.82;;
43114;SDS011;28727;50.068;14.452;2022-08-19T09:27:57;17.17;;;14.93;;
43114;SDS011;28727;50.068;14.452;2022-08-19T09:30:34;16.63;;;14.98;;
43114;SDS011;28727;50.068;14.452;2022-08-19T09:33:10;16.95;;;15.15;;
43114;SDS011;28727;50.068;14.452;2022-08-19T09:35:42;16.10;;;14.40;;
43114;SDS011;28727;50.068;14.452;2022-08-19T09:38:24;16.00;;;14.40;;
43114;SDS011;28727;50.068;14.452;2022-08-19T09:40:56;15.57;;;13.32;;
43114;SDS011;28727;50.068;14.452;2022-08-19T09:43:33;16.10;;;13.55;;
43114;SDS011;28727;50.068;14.452;2022-08-19T09:48:54;16.98;;;14.75;;
43114;SDS011;28727;50.068;14.452;2022-08-19T09:51:36;16.15;;;14.45;;
43114;SDS011;28727;50.068;14.452;2022-08-19T09:54:09;16.65;;;14.85;;
43114;SDS011;28727;50.068;14.452;2022-08-19T09:56:41;15.82;;;14.00;;
43114;SDS011;28727;50.068;14.452;2022-08-19T09:59:14;16.80;;;15.10;;
43114;SDS011;28727;50.068;14.452;2022-08-19T10:01:46;16.38;;;14.70;;
43114;SDS011;28727;50.068;14.452;2022-08-19T10:04:18;65.45;;;31.60;;
43114;SDS011;28727;50.068;14.452;2022-08-19T10:06:55;141.10;;;57.03;;
43114;SDS011;28727;50.068;14.452;2022-08-19T10:09:27;25.45;;;17.25;;
43114;SDS011;28727;50.068;14.452;2022-08-19T10:12:05;16.98;;;15.27;;
43114;SDS011;28727;50.068;14.452;2022-08-19T10:14:41;21.92;;;15.38;;
43114;SDS011;28727;50.068;14.452;2022-08-19T10:17:13;23.35;;;16.25;;
43114;SDS011;28727;50.068;14.452;2022-08-19T10:19:51;20.08;;;14.98;;
43114;SDS011;28727;50.068;14.452;2022-08-19T10:22:26;17.63;;;15.13;;
43114;SDS011;28727;50.068;14.452;2022-08-19T10:24:58;16.80;;;14.85;;
43114;SDS011;28727;50.068;14.452;2022-08-19T10:27:29;20.45;;;14.48;;
43114;SDS011;28727;50.068;14.452;2022-08-19T10:30:02;15.98;;;14.18;;
43114;SDS011;28727;50.068;14.452;2022-08-19T10:32:40;15.68;;;14.02;;
43114;SDS011;28727;50.068;14.452;2022-08-19T10:35:16;17.60;;;14.75;;
43114;SDS011;28727;50.068;14.452;2022-08-19T10:37:53;20.52;;;15.13;;
43114;SDS011;28727;50.068;14.452;2022-08-19T10:40:32;321.53;;;286.07;;
43114;SDS011;28727;50.068;14.452;2022-08-19T10:43:04;434.63;;;340.67;;
43114;SDS011;28727;50.068;14.452;2022-08-19T10:45:35;128.63;;;122.63;;
43114;SDS011;28727;50.068;14.452;2022-08-19T10:48:22;128.70;;;122.67;;
43114;SDS011;28727;50.068;14.452;2022-08-19T10:50:54;126.50;;;120.70;;
43114;SDS011;28727;50.068;14.452;2022-08-19T10:53:53;124.00;;;118.37;;
43114;SDS011;28727;50.068;14.452;2022-08-19T10:56:25;124.27;;;118.53;;
43114;SDS011;28727;50.068;14.452;2022-08-19T10:59:18;116.40;;;111.10;;
43114;SDS011;28727;50.068;14.452;2022-08-19T11:02:00;120.40;;;114.83;;
43114;SDS011;28727;50.068;14.452;2022-08-19T11:04:34;124.37;;;118.57;;
43114;SDS011;28727;50.068;14.452;2022-08-19T11:07:06;121.10;;;115.60;;
43114;SDS011;28727;50.068;14.452;2022-08-19T11:09:39;121.07;;;115.53;;
43114;SDS011;28727;50.068;14.452;2022-08-19T11:12:12;120.35;;;114.72;;
43114;SDS011;28727;50.068;14.452;2022-08-19T11:14:44;118.50;;;113.07;;
43114;SDS011;28727;50.068;14.452;2022-08-19T11:17:17;118.10;;;112.57;;
43114;SDS011;28727;50.068;14.452;2022-08-19T11:19:49;115.50;;;110.13;;
43114;SDS011;28727;50.068;14.452;2022-08-19T11:22:21;116.63;;;111.13;;
43114;SDS011;28727;50.068;14.452;2022-08-19T11:25:09;118.30;;;112.53;;
43114;SDS011;28727;50.068;14.452;2022-08-19T11:27:42;115.38;;;109.93;;
43114;SDS011;28727;50.068;14.452;2022-08-19T11:30:14;116.47;;;111.10;;
43114;SDS011;28727;50.068;14.452;2022-08-19T11:32:47;115.67;;;110.47;;
43114;SDS011;28727;50.068;14.452;2022-08-19T11:35:20;117.67;;;112.07;;
43114;SDS011;28727;50.068;14.452;2022-08-19T11:37:51;118.77;;;113.30;;
43114;SDS011;28727;50.068;14.452;2022-08-19T11:40:23;116.67;;;111.30;;
43114;SDS011;28727;50.068;14.452;2022-08-19T11:42:55;117.53;;;112.33;;
43114;SDS011;28727;50.068;14.452;2022-08-19T11:45:27;121.10;;;115.63;;
43114;SDS011;28727;50.068;14.452;2022-08-19T11:48:00;115.18;;;109.72;;
43114;SDS011;28727;50.068;14.452;2022-08-19T11:50:33;117.10;;;111.60;;
43114;SDS011;28727;50.068;14.452;2022-08-19T11:53:04;125.27;;;119.57;;
43114;SDS011;28727;50.068;14.452;2022-08-19T11:55:40;121.20;;;115.73;;
43114;SDS011;28727;50.068;14.452;2022-08-19T11:58:15;116.77;;;111.57;;
43114;SDS011;28727;50.068;14.452;2022-08-19T12:00:49;121.27;;;115.80;;
43114;SDS011;28727;50.068;14.452;2022-08-19T12:03:21;118.47;;;113.17;;
43114;SDS011;28727;50.068;14.452;2022-08-19T12:05:53;122.43;;;116.93;;
43114;SDS011;28727;50.068;14.452;2022-08-19T12:08:24;118.63;;;113.07;;
43114;SDS011;28727;50.068;14.452;2022-08-19T12:10:56;121.83;;;116.03;;
43114;SDS011;28727;50.068;14.452;2022-08-19T12:13:28;117.70;;;112.33;;
43114;SDS011;28727;50.068;14.452;2022-08-19T12:16:07;122.00;;;116.35;;
43114;SDS011;28727;50.068;14.452;2022-08-19T12:18:45;122.00;;;116.50;;
43114;SDS011;28727;50.068;14.452;2022-08-19T12:21:22;124.37;;;118.60;;
43114;SDS011;28727;50.068;14.452;2022-08-19T12:23:59;125.33;;;119.53;;
43114;SDS011;28727;50.068;14.452;2022-08-19T12:26:32;123.88;;;118.28;;
43114;SDS011;28727;50.068;14.452;2022-08-19T12:29:06;124.38;;;118.68;;
43114;SDS011;28727;50.068;14.452;2022-08-19T12:31:39;127.05;;;121.10;;
43114;SDS011;28727;50.068;14.452;2022-08-19T12:34:13;124.93;;;119.22;;
43114;SDS011;28727;50.068;14.452;2022-08-19T12:36:44;124.17;;;118.57;;
43114;SDS011;28727;50.068;14.452;2022-08-19T12:39:16;121.83;;;116.50;;
43114;SDS011;28727;50.068;14.452;2022-08-19T12:41:51;126.53;;;120.83;;
43114;SDS011;28727;50.068;14.452;2022-08-19T12:44:25;127.33;;;121.50;;
43114;SDS011;28727;50.068;14.452;2022-08-19T12:47:02;125.03;;;119.27;;
43114;SDS011;28727;50.068;14.452;2022-08-19T12:49:37;123.03;;;117.20;;
43114;SDS011;28727;50.068;14.452;2022-08-19T12:52:26;121.37;;;115.90;;
43114;SDS011;28727;50.068;14.452;2022-08-19T12:54:58;127.27;;;121.50;;
43114;SDS011;28727;50.068;14.452;2022-08-19T12:57:30;121.33;;;115.67;;
43114;SDS011;28727;50.068;14.452;2022-08-19T13:00:08;124.00;;;118.17;;
43114;SDS011;28727;50.068;14.452;2022-08-19T13:02:44;124.03;;;118.30;;
43114;SDS011;28727;50.068;14.452;2022-08-19T13:05:20;122.40;;;116.93;;
43114;SDS011;28727;50.068;14.452;2022-08-19T13:07:54;118.33;;;113.03;;
43114;SDS011;28727;50.068;14.452;2022-08-19T13:10:34;126.75;;;120.65;;
43114;SDS011;28727;50.068;14.452;2022-08-19T13:13:07;118.87;;;113.57;;
43114;SDS011;28727;50.068;14.452;2022-08-19T13:15:41;124.63;;;118.93;;
43114;SDS011;28727;50.068;14.452;2022-08-19T13:18:14;126.03;;;120.13;;
43114;SDS011;28727;50.068;14.452;2022-08-19T13:20:45;121.37;;;116.00;;
43114;SDS011;28727;50.068;14.452;2022-08-19T13:23:23;123.03;;;117.57;;
43114;SDS011;28727;50.068;14.452;2022-08-19T13:25:59;122.70;;;117.20;;
43114;SDS011;28727;50.068;14.452;2022-08-19T13:28:33;124.00;;;118.50;;
43114;SDS011;28727;50.068;14.452;2022-08-19T13:31:25;122.20;;;116.70;;
43114;SDS011;28727;50.068;14.452;2022-08-19T13:34:17;124.53;;;118.97;;
43114;SDS011;28727;50.068;14.452;2022-08-19T13:36:52;127.57;;;121.57;;
43114;SDS011;28727;50.068;14.452;2022-08-19T13:39:26;122.30;;;116.77;;
43114;SDS011;28727;50.068;14.452;2022-08-19T13:41:58;127.57;;;121.63;;
43114;SDS011;28727;50.068;14.452;2022-08-19T13:44:31;121.65;;;116.22;;
43114;SDS011;28727;50.068;14.452;2022-08-19T13:47:04;122.90;;;117.30;;
43114;SDS011;28727;50.068;14.452;2022-08-19T13:49:38;120.77;;;115.37;;
43114;SDS011;28727;50.068;14.452;2022-08-19T13:52:09;119.67;;;114.10;;
43114;SDS011;28727;50.068;14.452;2022-08-19T13:54:41;125.97;;;120.07;;
43114;SDS011;28727;50.068;14.452;2022-08-19T13:57:14;122.20;;;116.63;;
43114;SDS011;28727;50.068;14.452;2022-08-19T13:59:46;125.07;;;119.37;;
43114;SDS011;28727;50.068;14.452;2022-08-19T14:02:18;121.20;;;115.67;;
43114;SDS011;28727;50.068;14.452;2022-08-19T14:04:50;122.47;;;116.87;;
43114;SDS011;28727;50.068;14.452;2022-08-19T14:07:21;121.73;;;116.23;;
43114;SDS011;28727;50.068;14.452;2022-08-19T14:09:54;125.87;;;120.23;;
43114;SDS011;28727;50.068;14.452;2022-08-19T14:12:26;122.30;;;116.60;;
43114;SDS011;28727;50.068;14.452;2022-08-19T14:14:59;121.07;;;115.63;;
43114;SDS011;28727;50.068;14.452;2022-08-19T14:17:31;121.37;;;115.47;;
43114;SDS011;28727;50.068;14.452;2022-08-19T14:20:04;123.50;;;117.53;;
43114;SDS011;28727;50.068;14.452;2022-08-19T14:22:41;120.47;;;115.07;;
43114;SDS011;28727;50.068;14.452;2022-08-19T14:25:16;119.97;;;114.53;;
43114;SDS011;28727;50.068;14.452;2022-08-19T14:27:50;118.97;;;113.57;;
43114;SDS011;28727;50.068;14.452;2022-08-19T14:30:26;118.33;;;112.90;;
43114;SDS011;28727;50.068;14.452;2022-08-19T14:33:00;115.97;;;110.87;;
43114;SDS011;28727;50.068;14.452;2022-08-19T14:35:33;118.75;;;113.47;;
43114;SDS011;28727;50.068;14.452;2022-08-19T14:38:06;124.30;;;118.73;;
43114;SDS011;28727;50.068;14.452;2022-08-19T14:40:45;119.07;;;113.67;;
43114;SDS011;28727;50.068;14.452;2022-08-19T14:43:17;121.90;;;116.40;;
43114;SDS011;28727;50.068;14.452;2022-08-19T14:45:49;120.13;;;114.60;;
43114;SDS011;28727;50.068;14.452;2022-08-19T14:48:21;120.10;;;114.80;;
43114;SDS011;28727;50.068;14.452;2022-08-19T14:50:59;119.93;;;114.50;;
43114;SDS011;28727;50.068;14.452;2022-08-19T14:53:30;123.20;;;117.30;;
43114;SDS011;28727;50.068;14.452;2022-08-19T14:56:08;115.60;;;110.50;;
43114;SDS011;28727;50.068;14.452;2022-08-19T14:58:45;119.80;;;114.50;;
43114;SDS011;28727;50.068;14.452;2022-08-19T15:01:17;123.20;;;117.53;;
43114;SDS011;28727;50.068;14.452;2022-08-19T15:03:51;117.10;;;111.90;;
43114;SDS011;28727;50.068;14.452;2022-08-19T15:06:25;119.05;;;113.65;;
43114;SDS011;28727;50.068;14.452;2022-08-19T15:08:58;120.03;;;114.70;;
43114;SDS011;28727;50.068;14.452;2022-08-19T15:11:34;119.37;;;113.97;;